Airfield :
LOGIN :

Register | Disclaimer

   EN    FR    IT 

 










Legend :    VFR   Marginal VFR   IFR   Intensive IFR   Very Intensive IFR
Visi :
Ceiling :
>= 8 km
>= 3000ft
5 to 8 km
1000 to 3000 ft
1500m to 5 km
500 to 1000 ft
800 to 1500m
200 to 500 ft
< 800m
< 200 ft
Symbols :   Thunderstorms  Fog  Heavy snow  Heavy precipitations  Wind > 20 kt
SIGMETs :     Misc.  Thunderstorms  Icing  Turbulence  Mountain Waves  Volcanic Ashes







- Airport Elevation : 10 ft
- IATA code : AAL


EKYT - Aalborg

CURRENT METAR :
  • 200920Z AUTO 28010KT 9999 BKN005/// BKN008/// 08/08 Q1023

EXPIRED METARs :
  • 200850Z AUTO 25013KT 7000 SCT003/// BKN005/// OVC007/// 07/07 Q1022
  • 200820Z 24014KT 4800 BR FEW003 BKN004 07/07 Q1022
  • 200813Z 24014KT 4500 BR FEW003 BKN004 07/07 Q1021
  • 200750Z 25015KT 1800 -DZ BR OVC003 07/07 Q1021
  • 200728Z 25016KT 1100 R08/P1500D R26/P1500D -DZ BR OVC003 07/07 Q1021
  • 200703Z 25015KT 1100 R08/1400N R26/1300N -DZ BR OVC003 07/07 Q1021
  • 200650Z 24015KT 1700 -DZ BR OVC003 07/06 Q1021
  • 200620Z 24016KT 2700 BR OVC004 06/06 Q1021

TAF TAF EKYT
Valid from the 20 at 09:00 until the 21 at 06:00 UTC


200824Z 2009/2106 24015KT 4000 -DZRA BKN004
BECMG 2009/2010 27016KT 9999 NSW SCT020
BECMG 2015/2018 27008KT
TEMPO 2101/2106 2500 BR BKN004
No reported NOTAMs for that airfield.



MET'MAP, your aeronautical weather chart ! - Copyright ORBIFLY December 2007 - Disclaimer

ORBIFLY MET'MAP TEAM :

Programming & Development : Alexandra Zaïnal
Concept & Development : Baudouin d'Aumeries
Co-Development & Prog : Marc-Olivier Méhu
Technical & hardware support : Manuel Goepfert

Contact : metmap@orbifly.com




SOURCES & CREDITS :

   NOAA